Terminal Aerodrome Forecast
Issued by NWS

Home | Current Version | Previous Version | Text Only | Print | Product List | Glossary On
Versions: 1 2 3 4 5 6 7 8 9 10 11 12 13 14
000
FTUS46 KSTO 050816 AAA
TAFSMF
TAF AMD
KSMF 050816Z 0508/0606 VRB02KT 5SM MIFG BR SCT200
     FM051100 VRB03KT 2SM MIFG BR SCT002 SCT200
      TEMPO 0512/0516 1/4SM FG OVC001
     FM051800 33012KT P6SM SCT250=

USA.gov is the U.S. government's official web portal to all federal, state and local government web resources and services.